Flugplatz Kassel-Calden Airport

Bericht für EDVK

vom 15.07. um 04:50 UTC

kein Wind

Sichtweite 9700 m

keine Wolken

Temperatur 14°C

Taupunkt 11°C

Luftfeuchtigkeit 82%

Luftdruck 1014 hPa

EDVK 150450Z AUTO 00000KT 9999 // NCD 14/11 Q1014
Keine Prognose (TAF) verfügbar.
Impressum